Eden, Vermont
Current Conditions -  °F | °C
As of 1:15 AM on Wednesday 26 Nov 2014 (Local Time) from KEFK Reporting Station
Overcast Overcast  
Wind Chill: 29°   Ceiling: 3600
Heat Index: 36°   Visibility: 10mi
Dew Point: 24°   Wind: 10mph
Humidity: 61%   Direction: 270°W
Pressure: 30.13"   Gusts: NA
Location:  44.71°N, 72.55°W
Report Text: KEFK 260615Z AUTO 27009KT 220V310 10SM BKN036 OVC045 02/M04 A3013 RMK AO2 T00241045
Loading
Personal Weather Stations






























Interactive Weather Map New forecast layout! Learn more

10-Day Weather Forecast

Advertisements
Track Severe Weather on mobile